Time;durP1;ratioP1;P1;durP2;ratioP2;P2;SDS_P1;SDS_P2;PMS_P1;PMS_P2;Temp;Humidity;BMP_temperature;BMP_pressure;BME280_temperature;BME280_humidity;BME280_pressure;Samples;Min_cycle;Max_cycle;Signal;HPM_P1;HPM_P2
2023/02/25 00:00:33;;;;;;;42.10;19.00;;;;;;;6.32;91.40;97936.48;107042;1275;25244;-80
2023/02/25 00:03:22;;;;;;;40.30;18.30;;;;;;;6.29;91.36;97937.08;102889;1284;5799757;-79
2023/02/25 00:05:58;;;;;;;48.70;19.70;;;;;;;6.28;90.96;97932.46;107027;1284;22540;-79
2023/02/25 00:08:41;;;;;;;65.90;24.10;;;;;;;6.26;90.99;97929.58;107010;1284;22586;-79
2023/02/25 00:11:23;;;;;;;45.90;19.60;;;;;;;6.21;90.99;97924.55;107235;1284;24269;-80
2023/02/25 00:13:54;;;;;;;46.70;21.20;;;;;;;6.14;90.24;97920.43;107171;1277;24220;-80
2023/02/25 00:16:36;;;;;;;45.20;20.30;;;;;;;6.09;91.35;97916.80;107226;1284;22576;-80
2023/02/25 00:19:13;;;;;;;43.60;19.90;;;;;;;6.02;91.80;97914.21;107299;1284;22514;-80
2023/02/25 00:21:52;;;;;;;77.90;27.20;;;;;;;5.97;91.34;97910.02;107238;1274;24022;-80
2023/02/25 00:24:36;;;;;;;61.10;24.20;;;;;;;5.89;91.98;97905.90;107291;1283;22529;-79
2023/02/25 00:27:17;;;;;;;59.50;22.90;;;;;;;5.85;92.88;97904.48;107156;1284;22530;-79
2023/02/25 00:29:59;;;;;;;44.70;19.90;;;;;;;5.80;93.22;97894.45;107341;1280;24215;-79
2023/02/25 00:32:39;;;;;;;44.70;20.20;;;;;;;5.79;92.96;97892.41;107208;1274;23973;-81
2023/02/25 00:35:21;;;;;;;45.20;19.70;;;;;;;5.77;92.85;97893.83;107290;1284;24285;-80
2023/02/25 00:37:53;;;;;;;47.30;18.70;;;;;;;5.76;93.25;97889.73;107348;1277;22536;-80
2023/02/25 00:40:37;;;;;;;47.20;18.00;;;;;;;5.75;93.84;97891.63;107364;1284;24228;-80
2023/02/25 00:43:12;;;;;;;37.50;18.20;;;;;;;5.73;93.15;97881.70;107538;1283;22601;-80
2023/02/25 00:45:43;;;;;;;42.90;19.00;;;;;;;5.71;92.78;97875.75;107222;1284;22494;-79
2023/02/25 00:48:13;;;;;;;37.30;16.90;;;;;;;5.67;92.86;97868.96;107455;1284;22494;-80
2023/02/25 00:50:42;;;;;;;38.60;17.60;;;;;;;5.63;93.15;97864.79;107245;1284;25239;-79
2023/02/25 00:53:11;;;;;;;37.40;17.30;;;;;;;5.60;92.75;97858.17;107213;1283;25327;-80
2023/02/25 07:54:04;;;;;;;12.70;4.30;;;;;;;11.86;67.56;97417.52;109378;1285;22513;-82
2023/02/25 07:57:44;;;;;;;18.30;5.20;;;;;;;11.89;66.76;97411.08;109272;1270;22557;-81
2023/02/25 08:00:47;;;;;;;20.80;4.80;;;;;;;11.91;66.05;97409.91;109085;1265;22428;-81
2023/02/25 08:07:38;;;;;;;13.90;4.90;;;;;;;11.69;69.41;97427.98;109128;1295;22794;-82
2023/02/25 08:10:37;;;;;;;;;;;;;;;;;;;;;
2023/02/25 08:13:50;;;;;;;10.40;4.20;;;;;;;11.24;71.92;97399.09;108019;1293;22580;-78
2023/02/25 08:16:27;;;;;;;11.70;3.70;;;;;;;11.15;72.14;97396.77;106184;1294;25552;-77
2023/02/25 08:19:11;;;;;;;13.40;3.90;;;;;;;11.17;72.47;97392.73;106392;1290;24785;-78
2023/02/25 08:21:49;;;;;;;16.90;4.10;;;;;;;11.20;71.85;97400.02;106377;1294;24221;-79
2023/02/25 08:24:26;;;;;;;14.80;4.00;;;;;;;11.25;71.26;97407.68;106445;1287;22968;-79
2023/02/25 08:27:04;;;;;;;16.40;4.10;;;;;;;11.32;72.11;97418.91;106259;1289;25617;-79
2023/02/25 08:29:38;;;;;;;14.60;5.20;;;;;;;11.34;71.92;97428.05;107908;1290;24498;-80
2023/02/25 08:32:08;;;;;;;10.90;4.20;;;;;;;11.24;73.58;97433.92;106279;1293;22546;-78
2023/02/25 08:34:44;;;;;;;12.60;3.70;;;;;;;11.05;74.59;97435.80;106311;1292;24294;-79
2023/02/25 08:37:22;;;;;;;18.20;3.90;;;;;;;10.83;75.76;97405.45;106301;1292;22544;-78
2023/02/25 08:39:54;;;;;;;8.00;4.00;;;;;;;10.67;76.90;97389.64;106157;1287;22565;-80
2023/02/25 08:42:26;;;;;;;16.10;4.20;;;;;;;10.59;77.58;97381.23;108922;1293;22330;-78
2023/02/25 08:45:02;;;;;;;11.30;3.80;;;;;;;10.62;77.45;97371.92;108972;1294;23181;-78
2023/02/25 08:47:34;;;;;;;15.80;4.00;;;;;;;10.71;77.04;97365.52;108780;1289;23165;-77
2023/02/25 08:50:04;;;;;;;9.10;4.10;;;;;;;10.82;76.80;97363.23;108816;1294;22236;-78
2023/02/25 08:52:40;;;;;;;12.80;3.70;;;;;;;10.90;76.65;97369.86;108975;1286;22426;-78
2023/02/25 08:55:13;;;;;;;14.50;3.10;;;;;;;11.00;76.14;97373.18;108950;1293;22335;-77
2023/02/25 08:57:46;;;;;;;8.60;3.60;;;;;;;11.10;75.59;97365.84;106330;1293;25475;-78
2023/02/25 09:00:15;;;;;;;11.80;3.50;;;;;;;11.15;74.98;97360.20;106232;1287;22502;-79
2023/02/25 09:02:44;;;;;;;11.40;3.50;;;;;;;11.27;73.62;97371.20;106281;1292;23245;-79
2023/02/25 09:05:14;;;;;;;9.70;2.80;;;;;;;11.35;73.59;97370.02;106064;1295;25504;-80
2023/02/25 09:07:43;;;;;;;9.10;3.20;;;;;;;11.43;73.98;97379.80;106257;1294;24142;-79
2023/02/25 09:10:12;;;;;;;8.70;2.80;;;;;;;11.53;73.17;97385.33;106215;1292;23344;-79
2023/02/25 09:12:41;;;;;;;7.70;2.40;;;;;;;11.59;73.34;97388.51;107551;1294;22541;-77
2023/02/25 09:15:14;;;;;;;7.80;2.40;;;;;;;11.42;75.72;97385.09;106189;1294;22752;-76
2023/02/25 09:17:42;;;;;;;7.40;2.70;;;;;;;11.16;77.91;97385.48;106334;1295;22597;-79
2023/02/25 09:20:16;;;;;;;6.80;2.90;;;;;;;10.97;76.99;97374.54;106204;1295;22588;-79
2023/02/25 09:22:45;;;;;;;6.90;2.60;;;;;;;10.92;77.16;97383.84;108746;1295;23007;-77
2023/02/25 09:25:14;;;;;;;11.30;2.50;;;;;;;10.88;78.10;97368.29;107121;1292;24193;-77
2023/02/25 09:27:47;;;;;;;5.60;2.50;;;;;;;10.86;77.87;97367.65;106202;1289;22547;-78
2023/02/25 09:30:16;;;;;;;6.70;2.50;;;;;;;10.87;77.81;97373.84;106094;1289;25381;-77
2023/02/25 09:32:45;;;;;;;9.10;2.90;;;;;;;10.89;77.41;97378.23;106102;1295;22591;-77
2023/02/25 09:35:17;;;;;;;9.50;2.20;;;;;;;10.93;77.19;97386.55;106136;1294;24223;-78
2023/02/25 09:37:49;;;;;;;8.80;3.00;;;;;;;10.97;76.93;97397.58;106137;1291;24231;-79
2023/02/25 09:40:21;;;;;;;8.40;3.10;;;;;;;10.99;76.96;97412.23;106200;1289;22586;-78
2023/02/25 09:42:50;;;;;;;7.50;2.80;;;;;;;10.94;77.46;97411.77;106224;1289;25446;-80
2023/02/25 09:45:25;;;;;;;8.50;3.10;;;;;;;10.86;77.86;97418.14;106419;1287;22596;-82
2023/02/25 09:48:13;;;;;;;12.90;3.80;;;;;;;10.78;78.48;97429.63;107394;1292;22840;-80
2023/02/25 09:50:49;;;;;;;7.40;2.50;;;;;;;10.71;79.89;97426.02;106087;1290;23349;-78
2023/02/25 09:53:26;;;;;;;6.30;2.20;;;;;;;10.54;82.06;97423.94;106185;1294;25570;-77
2023/02/25 09:55:57;;;;;;;13.10;3.00;;;;;;;10.39;82.75;97425.38;108742;1295;22208;-77
2023/02/25 09:58:35;;;;;;;10.20;2.70;;;;;;;10.24;84.08;97429.58;107422;1295;24018;-78
2023/02/25 10:01:24;;;;;;;7.50;2.70;;;;;;;10.15;85.11;97426.23;108894;1295;23616;-77
2023/02/25 10:04:37;;;;;;;13.80;3.00;;;;;;;10.12;85.38;97428.43;108989;1295;22294;-78
2023/02/25 10:07:28;;;;;;;11.90;3.00;;;;;;;10.10;86.79;97429.58;105984;1295;23356;-77
2023/02/25 10:10:08;;;;;;;5.20;2.20;;;;;;;10.09;87.54;97437.27;105970;1295;22672;-79
2023/02/25 10:12:55;;;;;;;5.50;2.00;;;;;;;10.02;88.53;97434.85;105924;1295;22575;-79
2023/02/25 10:15:35;;;;;;;4.60;2.20;;;;;;;10.01;88.58;97436.12;105927;1295;24224;-77
2023/02/25 10:18:19;;;;;;;8.20;2.20;;;;;;;9.96;89.01;97430.98;105810;1295;22583;-80
2023/02/25 10:21:34;;;;;;;7.30;2.90;;;;;;;9.93;89.24;97430.45;105973;1290;22220;-79
2023/02/25 10:24:28;;;;;;;8.10;2.50;;;;;;;9.90;89.89;97416.40;105195;1301;22667;-79
2023/02/25 10:27:27;;;;;;;7.70;2.50;;;;;;;9.85;90.86;97412.30;105985;1292;22657;-77
2023/02/25 10:30:24;;;;;;;8.90;2.30;;;;;;;9.85;90.70;97408.84;105784;1295;24359;-80
2023/02/25 10:32:59;;;;;;;8.20;2.30;;;;;;;9.88;91.23;97413.39;105928;1295;22718;-79
2023/02/25 10:35:37;;;;;;;5.10;2.10;;;;;;;9.89;91.23;97411.79;105797;1286;22735;-77
2023/02/25 10:38:12;;;;;;;6.50;2.60;;;;;;;9.91;90.95;97414.45;106014;1292;25580;-80
2023/02/25 10:40:46;;;;;;;9.50;2.10;;;;;;;9.90;91.81;97402.02;106124;1295;22813;-79
2023/02/25 10:43:25;;;;;;;4.40;2.20;;;;;;;9.95;91.76;97398.30;105885;1295;23363;-80
2023/02/25 10:46:09;;;;;;;10.80;2.60;;;;;;;9.93;92.64;97396.31;106072;1295;25605;-80
2023/02/25 10:48:52;;;;;;;5.00;2.70;;;;;;;10.03;92.21;97377.11;106426;1295;22575;-80
2023/02/25 10:51:21;;;;;;;9.80;2.30;;;;;;;10.10;91.47;97382.34;106929;1294;22696;-78
2023/02/25 10:53:55;;;;;;;6.00;1.90;;;;;;;10.16;91.07;97376.83;108335;1295;22642;-77
2023/02/25 10:56:27;;;;;;;4.70;1.70;;;;;;;10.21;90.11;97358.61;106647;1295;25603;-77
2023/02/25 10:59:07;;;;;;;5.10;1.70;;;;;;;10.23;89.45;97357.08;106426;1295;22594;-78
2023/02/25 11:01:41;;;;;;;2.90;1.40;;;;;;;10.32;89.52;97359.11;106179;1292;22567;-77
2023/02/25 11:04:14;;;;;;;3.30;1.70;;;;;;;10.46;89.16;97345.90;107173;1295;23515;-78
2023/02/25 11:06:48;;;;;;;4.40;1.60;;;;;;;10.58;88.44;97338.33;105840;1295;25307;-77
2023/02/25 11:09:20;;;;;;;5.30;1.90;;;;;;;10.67;88.18;97343.94;108996;1295;23070;-77
2023/02/25 11:12:10;;;;;;;2.90;1.60;;;;;;;10.68;87.24;97334.66;108978;1295;22193;-77
2023/02/25 11:14:39;;;;;;;3.70;1.70;;;;;;;10.69;86.93;97319.00;108999;1295;22230;-79
2023/02/25 11:17:14;;;;;;;3.60;1.80;;;;;;;10.64;85.93;97308.05;108804;1295;22254;-77
2023/02/25 11:19:46;;;;;;;4.10;1.50;;;;;;;10.52;85.76;97312.48;108966;1295;22262;-77
2023/02/25 11:22:33;;;;;;;4.30;1.60;;;;;;;10.55;86.11;97308.20;106792;1295;22552;-77
2023/02/25 11:25:14;;;;;;;3.30;1.40;;;;;;;10.51;85.40;97309.41;106016;1295;22574;-77
2023/02/25 11:27:59;;;;;;;3.80;1.50;;;;;;;10.37;85.99;97303.41;105811;1295;22622;-77
2023/02/25 11:30:34;;;;;;;5.60;1.60;;;;;;;10.27;85.79;97302.88;108583;1295;23449;-77
2023/02/25 11:33:30;;;;;;;2.90;1.40;;;;;;;10.12;86.82;97305.02;108034;1295;25366;-77
2023/02/25 11:36:02;;;;;;;2.80;1.50;;;;;;;10.10;86.62;97299.59;105987;1290;24248;-77
2023/02/25 11:38:42;;;;;;;3.40;1.50;;;;;;;10.05;86.33;97291.54;105775;1295;22565;-77
2023/02/25 11:41:29;;;;;;;2.60;1.20;;;;;;;10.04;85.98;97280.85;106025;1295;22564;-77
2023/02/25 11:44:33;;;;;;;2.10;1.30;;;;;;;10.09;86.01;97285.65;106054;1295;22630;-77
2023/02/25 11:47:29;;;;;;;3.60;1.70;;;;;;;10.17;85.89;97290.58;105797;1295;24708;-77
2023/02/25 11:50:15;;;;;;;4.80;1.50;;;;;;;10.28;85.41;97286.17;106018;1295;25261;-77
2023/02/25 11:52:56;;;;;;;3.40;1.40;;;;;;;10.41;85.64;97279.48;105975;1295;23270;-79
2023/02/25 11:55:44;;;;;;;4.00;1.30;;;;;;;10.63;85.20;97272.55;106055;1295;24277;-80
2023/02/25 11:58:50;;;;;;;5.10;2.40;;;;;;;10.97;83.89;97267.25;105888;1293;22579;-76
2023/02/25 12:02:22;;;;;;;5.70;2.30;;;;;;;11.22;81.37;97280.23;106044;1292;22698;-78
2023/02/25 12:05:17;;;;;;;3.40;1.70;;;;;;;11.45;80.12;97284.15;103469;1292;22587;-77
2023/02/25 12:08:02;;;;;;;4.30;2.00;;;;;;;11.42;78.88;97296.61;106114;1295;22542;-77
2023/02/25 12:11:27;;;;;;;4.10;2.20;;;;;;;11.30;77.93;97302.83;105995;1295;23382;-77
2023/02/25 12:14:32;;;;;;;4.10;2.10;;;;;;;11.11;79.70;97311.52;105961;1289;22610;-79
2023/02/25 12:17:45;;;;;;;4.20;2.00;;;;;;;10.88;81.07;97329.46;105960;1289;26399;-79
2023/02/25 12:21:18;;;;;;;;;;;;;;;;;;;;;
2023/02/25 12:24:32;;;;;;;7.50;2.50;;;;;;;10.23;84.73;97387.38;105985;1280;22633;-79
2023/02/25 12:27:16;;;;;;;8.10;2.40;;;;;;;10.00;87.17;97389.39;105921;1293;23384;-79
2023/02/25 12:30:07;;;;;;;3.50;1.50;;;;;;;9.88;88.32;97370.45;106033;1295;27314;-79
2023/02/25 12:33:29;;;;;;;4.00;1.80;;;;;;;9.83;87.44;97357.55;105953;1293;22569;-79
2023/02/25 12:36:12;;;;;;;6.30;1.60;;;;;;;9.82;88.92;97362.65;105998;1295;22669;-80
2023/02/25 12:39:17;;;;;;;4.70;1.90;;;;;;;9.84;89.22;97362.16;105966;1295;22832;-80
2023/02/25 12:42:29;;;;;;;4.80;2.20;;;;;;;9.90;89.09;97358.22;105972;1295;22783;-79
2023/02/25 12:45:19;;;;;;;16.80;8.80;;;;;;;10.00;88.38;97357.73;105985;1295;25869;-79
2023/02/25 12:48:02;;;;;;;5.30;2.40;;;;;;;10.09;89.51;97350.18;105980;1295;24236;-79
2023/02/25 12:51:06;;;;;;;4.10;2.80;;;;;;;10.15;89.64;97340.51;105990;1295;22645;-79
2023/02/25 12:53:53;;;;;;;4.00;2.00;;;;;;;10.25;89.54;97338.98;106036;1295;22750;-79
2023/02/25 12:56:52;;;;;;;5.10;1.40;;;;;;;10.32;88.95;97339.01;106046;1295;22664;-80
2023/02/25 12:59:50;;;;;;;3.70;1.80;;;;;;;10.33;88.79;97340.00;106014;1295;22554;-83
2023/02/25 13:03:08;;;;;;;4.70;1.80;;;;;;;10.37;88.42;97336.67;106028;1295;22541;-79
2023/02/25 13:06:06;;;;;;;4.80;2.50;;;;;;;10.41;87.51;97334.04;106030;1295;22623;-79
2023/02/25 13:09:12;;;;;;;5.30;2.30;;;;;;;10.37;87.36;97336.31;106011;1295;22741;-79
2023/02/25 13:11:48;;;;;;;10.20;3.40;;;;;;;10.33;86.84;97339.09;105870;1295;22822;-83
2023/02/25 13:14:58;;;;;;;6.70;3.10;;;;;;;10.32;86.51;97344.21;105954;1295;24447;-79
2023/02/25 13:17:52;;;;;;;9.80;3.40;;;;;;;10.27;86.59;97357.23;105986;1293;22627;-79
2023/02/25 13:20:47;;;;;;;9.60;3.90;;;;;;;10.16;87.12;97366.41;105988;1294;24270;-79
2023/02/25 13:23:53;;;;;;;11.60;8.10;;;;;;;10.11;87.23;97364.27;105684;1286;22684;-79
2023/02/25 13:26:44;;;;;;;6.60;4.40;;;;;;;10.07;87.25;97368.80;105914;1295;24235;-79
2023/02/25 13:29:42;;;;;;;6.60;3.70;;;;;;;9.98;87.64;97379.66;105876;1295;24525;-79
2023/02/25 13:32:55;;;;;;;11.20;3.90;;;;;;;9.88;86.73;97395.39;105874;1295;22627;-78
2023/02/25 13:35:49;;;;;;;6.90;3.10;;;;;;;9.82;85.51;97404.99;105850;1295;22634;-79
2023/02/25 13:38:28;;;;;;;5.60;3.10;;;;;;;9.76;85.43;97417.42;105822;1295;25154;-80
2023/02/25 13:41:29;;;;;;;3.60;1.80;;;;;;;9.65;84.07;97430.90;105925;1295;22553;-79
2023/02/25 13:44:38;;;;;;;4.30;2.00;;;;;;;9.53;83.88;97445.98;105930;1295;24259;-79
2023/02/25 13:47:52;;;;;;;2.70;1.60;;;;;;;9.38;83.52;97441.54;105875;1295;25232;-79
2023/02/25 13:50:43;;;;;;;2.90;1.20;;;;;;;9.24;83.83;97447.70;105939;1295;22621;-79
2023/02/25 13:53:33;;;;;;;3.50;2.20;;;;;;;9.14;83.71;97450.39;106004;1295;22573;-79
2023/02/25 13:56:23;;;;;;;8.20;3.00;;;;;;;9.11;84.30;97459.20;105981;1295;24299;-79
2023/02/25 13:59:25;;;;;;;5.30;1.70;;;;;;;9.03;84.10;97461.98;106672;1292;22701;-79
2023/02/25 14:02:17;;;;;;;5.30;2.40;;;;;;;8.86;84.29;97476.70;106771;1289;22694;-79
2023/02/25 14:05:43;;;;;;;5.20;1.70;;;;;;;8.77;84.19;97489.17;106609;1292;26536;-80
2023/02/25 14:08:30;;;;;;;3.80;1.90;;;;;;;8.66;83.17;97492.59;106756;1295;23043;-79
2023/02/25 14:11:27;;;;;;;17.50;7.70;;;;;;;8.58;82.43;97491.38;106242;1289;22680;-80
2023/02/25 14:14:23;;;;;;;11.10;5.30;;;;;;;8.49;82.12;97504.86;105930;1295;22543;-78
2023/02/25 14:17:23;;;;;;;8.00;5.40;;;;;;;8.39;82.14;97512.36;105828;1295;24325;-79
2023/02/25 14:20:43;;;;;;;3.60;1.80;;;;;;;8.34;83.27;97516.88;105772;1295;25459;-79
2023/02/25 14:24:06;;;;;;;3.40;1.50;;;;;;;8.30;84.17;97530.15;105863;1295;23153;-80
2023/02/25 14:27:18;;;;;;;3.20;1.70;;;;;;;8.28;85.14;97532.34;105838;1277;22546;-79
2023/02/25 14:29:57;;;;;;;4.30;1.80;;;;;;;8.29;86.56;97536.95;105937;1289;24240;-79
2023/02/25 14:33:02;;;;;;;4.40;1.70;;;;;;;8.29;85.57;97551.62;105884;1295;25412;-79
2023/02/25 14:35:55;;;;;;;2.80;1.00;;;;;;;8.24;83.27;97560.26;105867;1273;22564;-79
2023/02/25 14:38:38;;;;;;;4.60;1.50;;;;;;;8.21;82.90;97564.18;105989;1290;22650;-79
2023/02/25 14:41:28;;;;;;;3.00;1.30;;;;;;;8.17;82.80;97578.31;106004;1295;22552;-79
2023/02/25 14:44:29;;;;;;;4.90;2.00;;;;;;;8.11;82.58;97596.31;105988;1295;22534;-79
2023/02/25 14:47:11;;;;;;;5.00;2.00;;;;;;;8.02;84.32;97601.34;106004;1292;25590;-80
2023/02/25 14:50:19;;;;;;;7.40;1.70;;;;;;;7.90;85.44;97598.87;105969;1295;22603;-79
2023/02/25 14:53:22;;;;;;;3.30;1.70;;;;;;;7.71;86.76;97592.49;105925;1291;22545;-79
2023/02/25 14:56:12;;;;;;;4.80;1.60;;;;;;;7.56;86.80;97597.56;105796;1295;25436;-79
2023/02/25 14:59:17;;;;;;;2.10;1.20;;;;;;;7.45;86.92;97617.77;105888;1292;25427;-79
2023/02/25 15:02:23;;;;;;;5.00;1.00;;;;;;;7.30;86.88;97610.39;105870;1289;22627;-79
2023/02/25 15:05:20;;;;;;;4.00;1.60;;;;;;;7.22;86.64;97629.11;105924;1295;22588;-79
2023/02/25 15:08:25;;;;;;;2.60;1.50;;;;;;;7.00;87.22;97644.66;105945;1285;22596;-79
2023/02/25 15:11:37;;;;;;;4.10;1.30;;;;;;;6.84;87.75;97658.27;105948;1294;25508;-78
2023/02/25 15:14:20;;;;;;;2.30;1.50;;;;;;;6.67;87.49;97663.15;105960;1295;22542;-79
2023/02/25 15:17:45;;;;;;;3.70;1.20;;;;;;;6.49;87.76;97676.82;105801;1295;22624;-80
2023/02/25 15:20:37;;;;;;;1.70;1.00;;;;;;;6.33;88.09;97686.27;106031;1285;22593;-79
2023/02/25 15:23:19;;;;;;;1.60;1.00;;;;;;;6.19;88.15;97685.29;105785;1295;22562;-79
2023/02/25 15:25:56;;;;;;;;;;;;;;;6.06;88.78;97691.88;105944;1286;22520;-78
2023/02/25 15:28:37;;;;;;;3.40;1.00;;;;;;;5.93;89.27;97701.33;105923;1295;22558;-79
2023/02/25 15:31:27;;;;;;;2.40;1.20;;;;;;;5.83;90.07;97703.17;105907;1289;24712;-79
2023/02/25 15:34:36;;;;;;;2.30;1.30;;;;;;;5.72;90.25;97717.89;107282;1286;22542;-78
2023/02/25 15:37:26;;;;;;;1.70;1.30;;;;;;;5.59;91.22;97726.02;105883;1295;26766;-79
2023/02/25 15:40:23;;;;;;;3.70;1.50;;;;;;;5.43;91.90;97737.44;105956;1295;24243;-79
2023/02/25 15:43:03;;;;;;;7.10;1.50;;;;;;;5.35;91.90;97743.11;106988;1280;24255;-79
2023/02/25 15:45:55;;;;;;;2.50;1.20;;;;;;;5.27;92.15;97746.94;105969;1292;22700;-79
2023/02/25 15:48:33;;;;;;;1.60;1.20;;;;;;;5.15;92.22;97755.48;105970;1295;24235;-79
2023/02/25 15:51:13;;;;;;;2.90;1.30;;;;;;;5.02;92.70;97763.88;105904;1295;22648;-79
2023/02/25 15:53:54;;;;;;;1.30;1.10;;;;;;;4.94;93.06;97767.83;105918;1290;22522;-79
2023/02/25 15:56:58;;;;;;;3.20;1.10;;;;;;;4.88;92.82;97766.94;105922;1295;24231;-79
2023/02/25 15:59:56;;;;;;;2.50;1.20;;;;;;;4.80;92.70;97775.73;105941;1290;22604;-79
2023/02/25 16:02:55;;;;;;;2.20;1.10;;;;;;;4.67;93.11;97788.38;105854;1290;22675;-79
2023/02/25 16:05:36;;;;;;;1.00;0.90;;;;;;;4.56;92.77;97795.96;107855;1284;22677;-79
2023/02/25 16:08:39;;;;;;;1.20;0.90;;;;;;;4.46;93.01;97797.58;105973;1292;22563;-78
2023/02/25 16:11:52;;;;;;;1.70;0.90;;;;;;;4.27;93.02;97811.35;105949;1289;22563;-79
2023/02/25 16:14:45;;;;;;;1.80;0.90;;;;;;;4.08;93.84;97822.70;105940;1289;22774;-78
2023/02/25 16:17:34;;;;;;;7.80;1.30;;;;;;;3.94;93.86;97839.23;105936;1279;22603;-79
2023/02/25 16:20:45;;;;;;;5.70;1.10;;;;;;;3.87;93.52;97837.33;105990;1295;22674;-79
2023/02/25 16:23:43;;;;;;;2.90;1.10;;;;;;;3.75;94.14;97846.28;105904;1295;25497;-79
2023/02/25 16:27:12;;;;;;;2.20;1.20;;;;;;;3.65;94.59;97840.45;105968;1290;22577;-79
2023/02/25 16:30:08;;;;;;;4.00;1.40;;;;;;;3.55;94.58;97834.97;105947;1289;23833;-79
2023/02/25 16:32:57;;;;;;;2.10;1.20;;;;;;;3.43;93.93;97841.35;105889;1293;22629;-79
2023/02/25 16:36:01;;;;;;;2.70;1.30;;;;;;;3.29;94.14;97849.95;105940;1292;22603;-77
2023/02/25 16:39:22;;;;;;;3.70;1.40;;;;;;;3.19;94.11;97845.67;105934;1290;25577;-77
2023/02/25 16:42:19;;;;;;;3.60;1.50;;;;;;;3.05;95.65;97851.52;108746;1295;22715;-79
2023/02/25 16:45:09;;;;;;;2.10;1.10;;;;;;;2.95;95.25;97850.98;105865;1295;23588;-79
2023/02/25 16:48:12;;;;;;;3.10;0.90;;;;;;;2.86;95.33;97857.95;105913;1295;24276;-77
2023/02/25 16:51:23;;;;;;;2.40;1.10;;;;;;;2.75;94.61;97859.98;105744;1295;25462;-79
2023/02/25 16:54:00;;;;;;;1.90;1.10;;;;;;;2.65;95.70;97844.56;105815;1295;23982;-77
2023/02/25 16:56:44;;;;;;;1.20;0.90;;;;;;;2.59;96.36;97836.07;108440;1295;25348;-79
2023/02/25 16:59:25;;;;;;;0.80;0.70;;;;;;;2.55;95.95;97853.41;105836;1295;25331;-77
2023/02/25 17:02:19;;;;;;;1.70;0.90;;;;;;;2.55;95.91;97853.08;106037;1295;24489;-77
2023/02/25 17:04:58;;;;;;;2.90;1.10;;;;;;;2.52;95.94;97848.65;105911;1295;22571;-79
2023/02/25 17:07:38;;;;;;;3.20;1.10;;;;;;;2.43;96.61;97857.33;105719;1289;22545;-77
2023/02/25 17:10:27;;;;;;;3.60;1.00;;;;;;;2.42;96.10;97854.95;105862;1295;22560;-77
2023/02/25 17:13:03;;;;;;;1.90;1.10;;;;;;;2.40;95.78;97841.29;106047;1295;24397;-77
2023/02/25 17:15:42;;;;;;;1.50;1.10;;;;;;;2.34;96.58;97836.91;106575;1295;22557;-78
2023/02/25 17:18:40;;;;;;;3.10;1.30;;;;;;;2.31;95.94;97826.00;106615;1295;22583;-80
2023/02/25 17:21:21;;;;;;;2.30;1.30;;;;;;;2.27;96.28;97824.34;106196;1295;23047;-77
2023/02/25 17:23:56;;;;;;;1.60;1.00;;;;;;;2.27;96.53;97831.70;106158;1295;23690;-79
2023/02/25 17:26:25;;;;;;;1.10;1.00;;;;;;;2.29;96.40;97832.70;107458;1295;24262;-77
2023/02/25 17:29:00;;;;;;;2.30;1.00;;;;;;;2.27;96.51;97834.79;106200;1295;24289;-77
2023/02/25 17:31:44;;;;;;;1.30;1.10;;;;;;;2.25;96.98;97832.40;105797;1283;22686;-77
2023/02/25 17:34:33;;;;;;;2.40;1.60;;;;;;;2.26;97.03;97835.81;105691;1289;23812;-78
2023/02/25 17:37:11;;;;;;;2.30;1.20;;;;;;;2.25;96.94;97827.27;105852;1290;22685;-77
2023/02/25 17:39:40;;;;;;;2.00;1.20;;;;;;;2.23;97.57;97817.39;105695;1280;23225;-76
2023/02/25 17:42:42;;;;;;;4.40;2.00;;;;;;;2.23;97.41;97821.67;105911;1295;25025;-79
2023/02/25 17:45:48;;;;;;;4.90;1.60;;;;;;;2.23;97.49;97827.46;105845;1295;22549;-77
2023/02/25 17:48:36;;;;;;;3.30;1.50;;;;;;;2.20;97.15;97812.30;105931;1295;22578;-77
2023/02/25 17:51:09;;;;;;;2.20;1.20;;;;;;;2.15;97.11;97812.34;105907;1295;25488;-77
2023/02/25 17:53:50;;;;;;;1.30;0.90;;;;;;;2.13;96.80;97802.80;107415;1295;22799;-77
2023/02/25 17:56:28;;;;;;;2.80;1.70;;;;;;;2.13;96.77;97803.48;105975;1294;22590;-77
2023/02/25 17:59:02;;;;;;;1.60;1.10;;;;;;;2.13;96.79;97800.75;105943;1283;22556;-77
2023/02/25 18:01:57;;;;;;;3.10;1.30;;;;;;;2.15;96.91;97802.61;105919;1295;22574;-76
2023/02/25 18:04:40;;;;;;;1.40;1.30;;;;;;;2.22;96.70;97802.19;105864;1280;22567;-77
2023/02/25 18:07:31;;;;;;;3.00;1.40;;;;;;;2.21;96.63;97798.61;105899;1289;22555;-77
2023/02/25 18:10:04;;;;;;;1.70;1.20;;;;;;;2.23;96.43;97803.88;105957;1295;22550;-77
2023/02/25 18:12:38;;;;;;;;;;;;;;;2.23;96.59;97803.20;106129;1295;22522;-77
2023/02/25 18:15:18;;;;;;;2.40;1.00;;;;;;;2.21;96.62;97794.50;105842;1295;24413;-77
2023/02/25 18:18:01;;;;;;;2.60;1.30;;;;;;;2.21;96.50;97791.08;105685;1295;22603;-77
2023/02/25 18:20:39;;;;;;;3.90;2.40;;;;;;;2.25;96.23;97794.45;105688;1289;22576;-76
2023/02/25 18:23:30;;;;;;;4.60;2.10;;;;;;;2.28;96.07;97815.10;105666;1295;24356;-77
2023/02/25 18:26:18;;;;;;;1.20;1.00;;;;;;;2.30;96.13;97805.17;105675;1295;22569;-77
2023/02/25 18:28:56;;;;;;;1.10;0.90;;;;;;;2.36;95.80;97810.55;105933;1295;22578;-77
2023/02/25 18:31:27;;;;;;;1.40;0.90;;;;;;;2.43;95.83;97801.91;105732;1295;26235;-79
2023/02/25 18:33:56;;;;;;;1.50;0.70;;;;;;;2.51;95.49;97810.52;105790;1295;22545;-77
2023/02/25 18:36:27;;;;;;;1.30;1.00;;;;;;;2.61;95.06;97817.76;105900;1292;22555;-77
2023/02/25 18:39:02;;;;;;;1.00;0.80;;;;;;;2.66;94.84;97818.89;105910;1289;23271;-77
2023/02/25 18:41:37;;;;;;;1.10;0.90;;;;;;;2.70;94.74;97832.69;107798;1295;23421;-77
2023/02/25 18:44:15;;;;;;;1.50;0.90;;;;;;;2.74;94.73;97831.60;105994;1289;22903;-77
2023/02/25 18:46:49;;;;;;;1.30;0.80;;;;;;;2.78;94.17;97835.48;105750;1289;24289;-77
2023/02/25 18:49:20;;;;;;;2.30;1.30;;;;;;;2.82;93.70;97844.49;105942;1295;23946;-77
2023/02/25 18:51:54;;;;;;;0.50;0.50;;;;;;;2.84;93.65;97858.00;105938;1295;25461;-77
2023/02/25 18:54:23;;;;;;;3.60;2.00;;;;;;;2.88;93.76;97864.61;105936;1294;25445;-78
2023/02/25 18:56:58;;;;;;;1.40;1.00;;;;;;;2.92;93.44;97873.61;105928;1290;22976;-78
2023/02/25 18:59:33;;;;;;;1.30;0.80;;;;;;;3.00;93.32;97890.45;105956;1289;24297;-77
2023/02/25 19:02:35;;;;;;;1.00;0.80;;;;;;;3.06;92.98;97892.42;105924;1289;24085;-76
2023/02/25 19:05:11;;;;;;;2.20;1.00;;;;;;;3.16;91.92;97897.41;105894;1289;25325;-77
2023/02/25 19:07:47;;;;;;;0.90;0.80;;;;;;;3.24;91.62;97897.48;105976;1295;22581;-78
2023/02/25 19:10:30;;;;;;;3.00;1.00;;;;;;;3.32;90.47;97891.88;105964;1295;22600;-79
2023/02/25 19:13:30;;;;;;;6.90;3.70;;;;;;;3.39;89.90;97876.52;105730;1295;24253;-78
2023/02/25 19:16:01;;;;;;;2.70;1.30;;;;;;;3.46;89.51;97881.55;105718;1289;22567;-77
2023/02/25 19:18:36;;;;;;;2.80;1.00;;;;;;;3.48;88.95;97870.23;105712;1292;22541;-78
2023/02/25 19:21:17;;;;;;;4.00;1.50;;;;;;;3.49;88.89;97862.48;105924;1295;25048;-77
2023/02/25 19:23:54;;;;;;;6.70;2.40;;;;;;;3.50;88.76;97835.91;105940;1294;24200;-77
2023/02/25 19:26:28;;;;;;;4.70;2.10;;;;;;;3.54;88.82;97821.11;105972;1295;23066;-77
2023/02/25 19:29:05;;;;;;;3.30;2.10;;;;;;;3.56;89.09;97812.84;105770;1294;22561;-78
2023/02/25 19:31:42;;;;;;;3.00;1.30;;;;;;;3.57;89.29;97816.61;105974;1290;25354;-78
2023/02/25 19:34:16;;;;;;;1.60;1.20;;;;;;;3.56;89.21;97820.23;106202;1292;24429;-79
2023/02/25 19:36:48;;;;;;;1.20;0.90;;;;;;;3.56;89.14;97822.10;105949;1286;23297;-78
2023/02/25 19:39:22;;;;;;;0.90;0.80;;;;;;;3.56;89.15;97832.04;105951;1294;24444;-77
2023/02/25 19:41:55;;;;;;;1.70;1.00;;;;;;;3.53;89.38;97837.23;105950;1295;22548;-77
2023/02/25 19:44:38;;;;;;;3.20;1.30;;;;;;;3.51;89.54;97833.52;105917;1280;22566;-78
2023/02/25 19:47:09;;;;;;;1.50;1.20;;;;;;;3.50;89.42;97829.23;106056;1294;22558;-78
2023/02/25 19:49:49;;;;;;;1.40;1.00;;;;;;;3.49;89.72;97824.80;106010;1293;23375;-78
2023/02/25 19:52:25;;;;;;;1.00;0.90;;;;;;;3.47;90.04;97815.40;106022;1289;22589;-77
2023/02/25 19:55:03;;;;;;;2.70;1.20;;;;;;;3.48;90.06;97805.12;106012;1289;25393;-77
2023/02/25 19:57:37;;;;;;;5.10;1.90;;;;;;;3.45;90.45;97802.61;106182;1295;22613;-78
2023/02/25 20:00:21;;;;;;;6.60;3.70;;;;;;;3.45;90.84;97801.56;105958;1289;25255;-78
2023/02/25 20:02:57;;;;;;;2.90;1.40;;;;;;;3.43;90.88;97794.75;107449;1295;23010;-78